createdAt,value
2023-12-13T00:00:48.659Z,8.24
2023-12-13T00:01:51.288Z,8.22
2023-12-13T00:02:48.620Z,8.20
2023-12-13T00:03:48.665Z,8.21
2023-12-13T00:04:48.829Z,8.18
2023-12-13T00:05:48.604Z,8.18
2023-12-13T00:06:48.581Z,8.18
2023-12-13T00:07:48.650Z,8.20
2023-12-13T00:08:48.570Z,8.22
2023-12-13T00:09:48.549Z,8.24
2023-12-13T00:10:48.812Z,8.25
2023-12-13T00:11:48.530Z,8.27
2023-12-13T00:12:48.508Z,8.24
2023-12-13T00:13:48.563Z,8.25
2023-12-13T00:14:48.494Z,8.27
2023-12-13T00:15:48.503Z,8.27
2023-12-13T00:16:48.501Z,8.27
2023-12-13T00:17:48.557Z,8.28
2023-12-13T00:18:48.533Z,8.28
2023-12-13T00:19:48.502Z,8.29
2023-12-13T00:20:48.439Z,8.31
2023-12-13T00:21:48.401Z,8.32
2023-12-13T00:22:48.499Z,8.31
2023-12-13T00:23:48.395Z,8.28
2023-12-13T00:24:48.372Z,8.31
2023-12-13T00:25:48.459Z,8.31
2023-12-13T00:26:48.364Z,8.29
2023-12-13T00:27:48.370Z,8.29
2023-12-13T00:28:48.352Z,8.28
2023-12-13T00:29:48.343Z,8.28
2023-12-13T00:30:48.336Z,8.32
2023-12-13T00:31:48.328Z,8.36
2023-12-13T00:32:48.338Z,8.34
2023-12-13T00:33:48.340Z,8.36
2023-12-13T00:34:48.315Z,8.34
2023-12-13T00:35:48.251Z,8.32
2023-12-13T00:36:48.236Z,8.31
2023-12-13T00:37:48.279Z,8.34
2023-12-13T00:38:48.223Z,8.39
2023-12-13T00:39:48.208Z,8.39
2023-12-13T00:40:48.275Z,8.42
2023-12-13T00:41:48.207Z,8.42
2023-12-13T00:42:48.192Z,8.39
2023-12-13T00:43:48.272Z,8.36
2023-12-13T00:44:48.167Z,8.37
2023-12-13T00:45:48.135Z,8.32
2023-12-13T00:46:48.141Z,8.31
2023-12-13T00:47:48.281Z,8.31
2023-12-13T00:48:48.139Z,8.31
2023-12-13T00:49:48.109Z,8.29
2023-12-13T00:50:48.093Z,8.29
2023-12-13T00:51:48.104Z,8.25
2023-12-13T00:52:48.150Z,8.24
2023-12-13T00:53:48.078Z,8.22
2023-12-13T00:54:48.060Z,8.20
2023-12-13T00:55:48.055Z,8.17
2023-12-13T00:56:48.050Z,8.10
2023-12-13T00:57:48.038Z,8.06
2023-12-13T00:58:48.031Z,8.02
2023-12-13T00:59:47.999Z,8.00
2023-12-13T01:00:48.000Z,8.03
2023-12-13T01:01:48.063Z,8.04
2023-12-13T01:02:48.078Z,8.06
2023-12-13T01:03:47.965Z,8.09
2023-12-13T01:04:48.012Z,8.12
2023-12-13T01:05:48.011Z,8.10
2023-12-13T01:06:47.934Z,8.09
2023-12-13T01:07:47.963Z,8.02
2023-12-13T01:08:47.893Z,8.02
2023-12-13T01:09:47.894Z,8.00
2023-12-13T01:10:47.924Z,7.94
2023-12-13T01:11:47.870Z,7.89
2023-12-13T01:12:47.874Z,7.84
2023-12-13T01:13:47.972Z,7.76
2023-12-13T01:14:47.835Z,7.67
2023-12-13T01:15:47.829Z,7.60
2023-12-13T01:16:47.904Z,7.57
2023-12-13T01:17:47.863Z,7.54
2023-12-13T01:18:47.858Z,7.52
2023-12-13T01:19:47.816Z,7.48
2023-12-13T01:20:47.762Z,7.48
2023-12-13T01:21:47.749Z,7.48
2023-12-13T01:22:47.890Z,7.48
2023-12-13T01:23:47.747Z,7.50
2023-12-13T01:24:47.736Z,7.44
2023-12-13T01:25:47.811Z,7.39
2023-12-13T01:26:47.702Z,7.39
2023-12-13T01:27:47.698Z,7.36
2023-12-13T01:28:47.782Z,7.33
2023-12-13T01:29:47.667Z,7.30
2023-12-13T01:30:47.733Z,7.27
2023-12-13T01:31:47.686Z,7.26
2023-12-13T01:32:47.732Z,7.24
2023-12-13T01:33:47.733Z,7.21
2023-12-13T01:34:47.651Z,7.18
2023-12-13T01:35:47.630Z,7.15
2023-12-13T01:36:47.617Z,7.11
2023-12-13T01:37:47.629Z,7.09
2023-12-13T01:38:47.577Z,7.05
2023-12-13T01:39:47.564Z,7.01
2023-12-13T01:41:10.200Z,6.97
2023-12-13T01:41:47.562Z,7.01
2023-12-13T01:42:47.560Z,6.97
2023-12-13T01:43:47.620Z,6.94
2023-12-13T01:44:47.558Z,6.90
2023-12-13T01:45:47.530Z,6.89
2023-12-13T01:46:47.523Z,6.89
2023-12-13T01:47:47.508Z,6.89
2023-12-13T01:48:47.562Z,6.89
2023-12-13T01:49:47.568Z,6.83
2023-12-13T01:50:47.471Z,6.83
2023-12-13T01:51:47.492Z,6.82
2023-12-13T01:52:47.507Z,6.79
2023-12-13T01:53:47.411Z,6.76
2023-12-13T01:54:47.398Z,6.73
2023-12-13T01:55:47.451Z,6.72
2023-12-13T01:56:47.404Z,6.71
2023-12-13T01:57:47.385Z,6.68
2023-12-13T01:58:47.458Z,6.64
2023-12-13T01:59:47.367Z,6.64
2023-12-13T02:00:47.357Z,6.64
2023-12-13T02:01:47.360Z,6.61
2023-12-13T02:02:47.446Z,6.68
2023-12-13T02:03:47.320Z,6.72
2023-12-13T02:04:47.368Z,6.72
2023-12-13T02:05:47.331Z,6.71
2023-12-13T02:06:47.348Z,6.69
2023-12-13T02:07:47.296Z,6.69
2023-12-13T02:08:47.303Z,6.65
2023-12-13T02:09:47.252Z,6.63
2023-12-13T02:10:47.268Z,6.60
2023-12-13T02:11:47.225Z,6.58
2023-12-13T02:12:47.204Z,6.55
2023-12-13T02:13:47.240Z,6.51
2023-12-13T02:14:47.182Z,6.51
2023-12-13T02:15:47.183Z,6.50
2023-12-13T02:16:47.317Z,6.54
2023-12-13T02:17:47.221Z,6.51
2023-12-13T02:18:47.291Z,6.51
2023-12-13T02:19:47.245Z,6.53
2023-12-13T02:20:47.113Z,6.53
2023-12-13T02:21:47.134Z,6.53
2023-12-13T02:22:47.131Z,6.57
2023-12-13T02:23:47.127Z,6.58
2023-12-13T02:24:47.076Z,6.55
2023-12-13T02:25:47.085Z,6.55
2023-12-13T02:26:47.048Z,6.54
2023-12-13T02:27:47.038Z,6.63
2023-12-13T02:28:47.113Z,6.72
2023-12-13T02:29:47.017Z,6.71
2023-12-13T02:30:47.037Z,6.72
2023-12-13T02:31:47.007Z,6.75
2023-12-13T02:32:47.026Z,6.72
2023-12-13T02:33:46.992Z,6.72
2023-12-13T02:34:47.028Z,6.65
2023-12-13T02:35:46.966Z,6.64
2023-12-13T02:36:46.960Z,6.60
2023-12-13T02:37:46.952Z,6.58
2023-12-13T02:38:46.958Z,6.64
2023-12-13T02:39:46.932Z,6.71
2023-12-13T02:40:46.994Z,6.78
2023-12-13T02:41:46.949Z,6.81
2023-12-13T02:42:46.874Z,6.82
2023-12-13T02:43:47.062Z,6.81
2023-12-13T02:44:46.881Z,6.73
2023-12-13T02:45:46.848Z,6.73
2023-12-13T02:46:46.882Z,6.69
2023-12-13T02:47:46.930Z,6.72
2023-12-13T02:48:46.923Z,6.68
2023-12-13T02:49:46.812Z,6.63
2023-12-13T02:50:46.817Z,6.60
2023-12-13T02:51:46.776Z,6.55
2023-12-13T02:52:46.809Z,6.51
2023-12-13T02:53:46.838Z,6.50
2023-12-13T02:54:46.761Z,6.46
2023-12-13T02:55:46.809Z,6.43
2023-12-13T02:56:46.743Z,6.36
2023-12-13T02:57:46.725Z,6.33
2023-12-13T02:58:46.767Z,6.32
2023-12-13T02:59:46.708Z,6.30
2023-12-13T03:00:46.712Z,6.25
2023-12-13T03:01:46.682Z,6.24
2023-12-13T03:02:46.742Z,6.24
2023-12-13T03:03:46.666Z,6.27
2023-12-13T03:04:46.708Z,6.21
2023-12-13T03:05:46.719Z,6.19
2023-12-13T03:06:46.630Z,6.13
2023-12-13T03:07:46.687Z,6.11
2023-12-13T03:08:46.640Z,6.06
2023-12-13T03:09:46.577Z,6.02
2023-12-13T03:10:46.618Z,5.96
2023-12-13T03:11:46.578Z,5.93
2023-12-13T03:12:46.577Z,5.90
2023-12-13T03:13:46.617Z,5.85
2023-12-13T03:14:46.540Z,5.85
2023-12-13T03:15:46.528Z,5.81
2023-12-13T03:16:46.538Z,5.80
2023-12-13T03:17:46.567Z,5.75
2023-12-13T03:18:46.567Z,5.74
2023-12-13T03:19:46.499Z,5.74
2023-12-13T03:20:46.479Z,5.74
2023-12-13T03:21:46.453Z,5.78
2023-12-13T03:22:46.484Z,5.78
2023-12-13T03:23:46.485Z,5.80
2023-12-13T03:24:46.423Z,5.77
2023-12-13T03:25:46.450Z,5.80
2023-12-13T03:26:46.408Z,5.77
2023-12-13T03:27:46.406Z,5.78
2023-12-13T03:28:46.437Z,5.78
2023-12-13T03:29:46.370Z,5.75
2023-12-13T03:30:46.426Z,5.74
2023-12-13T03:31:46.436Z,5.74
2023-12-13T03:32:49.115Z,5.74
2023-12-13T03:33:46.419Z,5.75
2023-12-13T03:34:46.370Z,5.75
2023-12-13T03:35:46.328Z,5.73
2023-12-13T03:36:46.306Z,5.73
2023-12-13T03:37:46.365Z,5.75
2023-12-13T03:38:46.309Z,5.77
2023-12-13T03:39:46.277Z,5.78
2023-12-13T03:40:46.279Z,5.78
2023-12-13T03:41:46.266Z,5.80
2023-12-13T03:42:46.268Z,5.83
2023-12-13T03:43:46.280Z,5.85
2023-12-13T03:44:46.369Z,5.88
2023-12-13T03:45:46.204Z,5.88
2023-12-13T03:46:46.246Z,5.85
2023-12-13T03:47:46.400Z,5.87
2023-12-13T03:48:46.322Z,5.88
2023-12-13T03:49:46.335Z,5.87
2023-12-13T03:50:46.162Z,5.87
2023-12-13T03:51:46.131Z,5.88
2023-12-13T03:52:46.262Z,5.88
2023-12-13T03:53:46.136Z,5.88
2023-12-13T03:54:46.115Z,5.90
2023-12-13T03:55:46.116Z,5.92
2023-12-13T03:56:46.092Z,5.92
2023-12-13T03:57:46.086Z,5.92
2023-12-13T03:58:46.211Z,5.95
2023-12-13T03:59:46.051Z,5.96
2023-12-13T04:00:46.051Z,5.98
2023-12-13T04:01:46.096Z,5.98
2023-12-13T04:02:46.013Z,5.98
2023-12-13T04:03:46.100Z,5.99
2023-12-13T04:04:46.070Z,5.99
2023-12-13T04:05:46.042Z,6.05
2023-12-13T04:06:45.985Z,6.06
2023-12-13T04:07:46.015Z,6.05
2023-12-13T04:08:45.983Z,6.03
2023-12-13T04:09:45.953Z,6.02
2023-12-13T04:10:45.963Z,6.01
2023-12-13T04:11:45.962Z,6.01
2023-12-13T04:12:45.939Z,6.02
2023-12-13T04:13:45.962Z,5.98
2023-12-13T04:14:45.891Z,5.98
2023-12-13T04:15:45.878Z,5.96
2023-12-13T04:16:45.924Z,5.93
2023-12-13T04:17:45.885Z,5.90
2023-12-13T04:18:45.967Z,5.87
2023-12-13T04:19:45.884Z,5.88
2023-12-13T04:20:45.836Z,5.90
2023-12-13T04:21:45.804Z,5.88
2023-12-13T04:22:45.862Z,5.88
2023-12-13T04:23:45.811Z,5.88
2023-12-13T04:24:45.776Z,5.88
2023-12-13T04:25:45.859Z,5.90
2023-12-13T04:26:45.768Z,5.90
2023-12-13T04:27:45.763Z,5.90
2023-12-13T04:28:45.828Z,5.90
2023-12-13T04:29:45.751Z,5.95
2023-12-13T04:30:45.764Z,5.92
2023-12-13T04:31:45.806Z,5.95
2023-12-13T04:32:45.720Z,5.92
2023-12-13T04:33:45.733Z,5.95
2023-12-13T04:34:45.744Z,5.90
2023-12-13T04:35:45.668Z,5.88
2023-12-13T04:36:45.686Z,5.84
2023-12-13T04:37:45.746Z,5.80
2023-12-13T04:38:45.676Z,5.77
2023-12-13T04:39:45.631Z,5.70
2023-12-13T04:40:45.666Z,5.73
2023-12-13T04:41:45.621Z,5.74
2023-12-13T04:42:45.600Z,5.78
2023-12-13T04:43:45.641Z,5.81
2023-12-13T04:44:45.613Z,5.85
2023-12-13T04:45:45.552Z,5.92
2023-12-13T04:46:45.587Z,5.93
2023-12-13T04:47:45.576Z,5.99
2023-12-13T04:48:45.550Z,6.01
2023-12-13T04:49:45.593Z,5.98
2023-12-13T04:50:45.529Z,5.98
2023-12-13T04:51:45.503Z,5.99
2023-12-13T04:52:45.510Z,5.96
2023-12-13T04:53:45.492Z,5.98
2023-12-13T04:54:45.499Z,5.96
2023-12-13T04:55:45.518Z,5.98
2023-12-13T04:56:45.466Z,5.98
2023-12-13T04:57:45.441Z,5.96
2023-12-13T04:58:45.447Z,5.96
2023-12-13T04:59:45.445Z,5.99
2023-12-13T05:00:45.434Z,5.99
2023-12-13T05:01:45.453Z,5.98
2023-12-13T05:02:45.387Z,5.99
2023-12-13T05:03:46.835Z,5.98
2023-12-13T05:04:45.450Z,5.96
2023-12-13T05:05:45.428Z,5.95
2023-12-13T05:06:45.342Z,5.95
2023-12-13T05:07:45.442Z,5.93
2023-12-13T05:08:45.334Z,5.92
2023-12-13T05:09:45.341Z,5.93
2023-12-13T05:10:45.410Z,5.93
2023-12-13T05:11:45.305Z,5.93
2023-12-13T05:12:45.329Z,5.92
2023-12-13T05:13:45.288Z,5.93
2023-12-13T05:14:45.286Z,5.93
2023-12-13T05:15:45.238Z,5.95
2023-12-13T05:16:45.274Z,5.95
2023-12-13T05:17:45.240Z,5.95
2023-12-13T05:18:45.270Z,5.92
2023-12-13T05:19:45.252Z,5.92
2023-12-13T05:20:45.186Z,5.90
2023-12-13T05:21:45.184Z,5.92
2023-12-13T05:22:45.220Z,5.90
2023-12-13T05:23:45.155Z,5.93
2023-12-13T05:24:45.205Z,5.92
2023-12-13T05:25:45.208Z,5.93
2023-12-13T05:26:45.133Z,5.92
2023-12-13T05:27:45.114Z,5.92
2023-12-13T05:28:45.216Z,5.92
2023-12-13T05:29:45.144Z,5.92
2023-12-13T05:30:45.134Z,5.93
2023-12-13T05:31:45.098Z,5.93
2023-12-13T05:32:45.087Z,5.95
2023-12-13T05:33:45.068Z,5.93
2023-12-13T05:34:45.110Z,5.98
2023-12-13T05:35:45.059Z,6.08
2023-12-13T05:36:45.068Z,6.11
2023-12-13T05:37:45.075Z,6.13
2023-12-13T05:38:44.998Z,6.14
2023-12-13T05:39:45.024Z,6.13
2023-12-13T05:40:45.004Z,6.14
2023-12-13T05:41:44.958Z,6.13
2023-12-13T05:42:44.956Z,6.11
2023-12-13T05:43:44.994Z,6.13
2023-12-13T05:44:44.969Z,6.11
2023-12-13T05:45:44.924Z,6.11
2023-12-13T05:46:44.951Z,6.11
2023-12-13T05:47:44.946Z,6.11
2023-12-13T05:48:44.955Z,6.14
2023-12-13T05:49:44.982Z,6.14
2023-12-13T05:50:44.870Z,6.16
2023-12-13T05:51:44.865Z,6.16
2023-12-13T05:52:44.871Z,6.17
2023-12-13T05:53:44.862Z,6.17
2023-12-13T05:54:44.839Z,6.20
2023-12-13T05:55:44.848Z,6.17
2023-12-13T05:56:44.794Z,6.19
2023-12-13T05:57:44.802Z,6.19
2023-12-13T05:58:44.926Z,6.19
2023-12-13T05:59:44.852Z,6.19
2023-12-13T06:00:44.767Z,6.19
2023-12-13T06:01:44.779Z,6.17
2023-12-13T06:02:55.082Z,6.17
2023-12-13T06:03:44.747Z,6.16
2023-12-13T06:04:44.926Z,6.16
2023-12-13T06:05:44.906Z,6.19
2023-12-13T06:06:44.777Z,6.20
2023-12-13T06:07:44.736Z,6.21
2023-12-13T06:08:44.679Z,6.24
2023-12-13T06:09:44.698Z,6.24
2023-12-13T06:10:44.710Z,6.21
2023-12-13T06:11:44.652Z,6.21
2023-12-13T06:12:44.642Z,6.20
2023-12-13T06:13:44.660Z,6.21
2023-12-13T06:14:44.650Z,6.19
2023-12-13T06:15:44.602Z,6.17
2023-12-13T06:16:44.608Z,6.16
2023-12-13T06:17:44.615Z,6.14
2023-12-13T06:18:44.608Z,6.13
2023-12-13T06:19:44.658Z,6.13
2023-12-13T06:20:44.542Z,6.13
2023-12-13T06:21:44.554Z,6.11
2023-12-13T06:22:44.552Z,6.10
2023-12-13T06:23:44.500Z,6.08
2023-12-13T06:24:44.526Z,6.10
2023-12-13T06:25:44.537Z,6.08
2023-12-13T06:26:44.490Z,6.05
2023-12-13T06:27:44.498Z,6.05
2023-12-13T06:28:44.489Z,6.03
2023-12-13T06:29:44.458Z,6.02
2023-12-13T06:30:44.496Z,6.01
2023-12-13T06:31:44.493Z,5.98
2023-12-13T06:32:44.495Z,5.98
2023-12-13T06:33:44.535Z,5.95
2023-12-13T06:34:44.449Z,5.93
2023-12-13T06:35:44.378Z,5.93
2023-12-13T06:36:44.377Z,5.93
2023-12-13T06:37:44.381Z,5.96
2023-12-13T06:38:44.367Z,5.92
2023-12-13T06:39:44.353Z,5.92
2023-12-13T06:40:44.351Z,5.88
2023-12-13T06:41:44.314Z,5.88
2023-12-13T06:42:44.315Z,5.88
2023-12-13T06:43:44.334Z,5.87
2023-12-13T06:44:44.295Z,5.88
2023-12-13T06:45:44.271Z,5.87
2023-12-13T06:46:44.266Z,5.92
2023-12-13T06:47:44.512Z,5.93
2023-12-13T06:48:44.318Z,6.01
2023-12-13T06:49:44.271Z,6.02
2023-12-13T06:50:44.253Z,6.03
2023-12-13T06:51:44.225Z,6.03
2023-12-13T06:52:44.243Z,6.01
2023-12-13T06:53:44.195Z,5.99
2023-12-13T06:54:44.184Z,5.98
2023-12-13T06:55:44.195Z,6.01
2023-12-13T06:56:44.160Z,5.98
2023-12-13T06:57:44.176Z,5.98
2023-12-13T06:58:44.204Z,5.95
2023-12-13T06:59:44.130Z,5.95
2023-12-13T07:00:44.143Z,5.95
2023-12-13T07:01:44.138Z,5.96
2023-12-13T07:02:44.139Z,5.95
2023-12-13T07:03:44.103Z,5.93
2023-12-13T07:04:44.206Z,5.95
2023-12-13T07:05:44.158Z,5.95
2023-12-13T07:06:44.049Z,5.95
2023-12-13T07:07:44.081Z,5.98
2023-12-13T07:08:44.037Z,5.99
2023-12-13T07:09:44.028Z,6.03
2023-12-13T07:10:44.034Z,6.06
2023-12-13T07:11:44.007Z,6.10
2023-12-13T07:12:44.000Z,6.06
2023-12-13T07:13:44.016Z,6.08
2023-12-13T07:14:43.971Z,6.10
2023-12-13T07:15:43.984Z,6.11
2023-12-13T07:16:44.003Z,6.14
2023-12-13T07:17:44.252Z,6.16
2023-12-13T07:18:43.968Z,6.16
2023-12-13T07:19:44.060Z,6.17
2023-12-13T07:20:44.017Z,6.17
2023-12-13T07:21:43.905Z,6.17
2023-12-13T07:22:43.907Z,6.17
2023-12-13T07:23:43.894Z,6.19
2023-12-13T07:24:43.892Z,6.20
2023-12-13T07:25:43.927Z,6.19
2023-12-13T07:26:43.869Z,6.17
2023-12-13T07:27:43.859Z,6.21
2023-12-13T07:28:43.840Z,6.20
2023-12-13T07:29:43.827Z,6.25
2023-12-13T07:30:52.274Z,6.25
2023-12-13T07:31:43.908Z,6.27
2023-12-13T07:32:43.820Z,6.28
2023-12-13T07:33:44.475Z,6.32
2023-12-13T07:34:43.806Z,6.32
2023-12-13T07:35:43.756Z,6.36
2023-12-13T07:36:43.730Z,6.36
2023-12-13T07:37:43.809Z,6.38
2023-12-13T07:38:43.707Z,6.42
2023-12-13T07:39:43.688Z,6.43
2023-12-13T07:40:43.774Z,6.46
2023-12-13T07:41:43.665Z,6.46
2023-12-13T07:42:43.661Z,6.48
2023-12-13T07:43:43.722Z,6.51
2023-12-13T07:44:43.632Z,6.63
2023-12-13T07:45:43.672Z,6.75
2023-12-13T07:46:43.760Z,6.86
2023-12-13T07:47:44.401Z,6.93
2023-12-13T07:48:43.933Z,6.96
2023-12-13T07:49:43.798Z,6.99
2023-12-13T07:50:43.721Z,7.05
2023-12-13T07:51:43.563Z,7.05
2023-12-13T07:52:43.589Z,7.07
2023-12-13T07:53:44.214Z,7.05
2023-12-13T07:54:43.616Z,7.00
2023-12-13T07:55:43.550Z,6.96
2023-12-13T07:56:43.522Z,6.89
2023-12-13T07:57:43.518Z,6.86
2023-12-13T07:58:43.568Z,6.79
2023-12-13T07:59:43.477Z,6.78
2023-12-13T08:00:43.507Z,6.75
2023-12-13T08:01:43.477Z,6.73
2023-12-13T08:02:46.808Z,6.73
2023-12-13T08:03:43.516Z,6.73
2023-12-13T08:04:43.491Z,6.75
2023-12-13T08:05:43.545Z,6.72
2023-12-13T08:06:43.399Z,6.73
2023-12-13T08:07:43.403Z,6.71
2023-12-13T08:08:43.424Z,6.71
2023-12-13T08:09:43.419Z,6.73
2023-12-13T08:10:43.412Z,6.69
2023-12-13T08:11:43.352Z,6.72
2023-12-13T08:12:43.347Z,6.71
2023-12-13T08:13:43.486Z,6.72
2023-12-13T08:14:43.322Z,6.72
2023-12-13T08:15:43.370Z,6.73
2023-12-13T08:16:43.343Z,6.73
2023-12-13T08:17:43.363Z,6.73
2023-12-13T08:18:43.555Z,6.75
2023-12-13T08:19:43.323Z,6.76
2023-12-13T08:20:43.297Z,6.78
2023-12-13T08:21:43.261Z,6.81
2023-12-13T08:22:43.260Z,6.82
2023-12-13T08:23:43.222Z,6.81
2023-12-13T08:24:43.235Z,6.86
2023-12-13T08:25:43.294Z,6.89
2023-12-13T08:26:43.209Z,6.94
2023-12-13T08:27:43.195Z,6.99
2023-12-13T08:28:43.217Z,7.00
2023-12-13T08:29:43.159Z,7.04
2023-12-13T08:30:43.182Z,7.05
2023-12-13T08:31:43.160Z,7.05
2023-12-13T08:32:43.150Z,7.07
2023-12-13T08:33:43.173Z,7.05
2023-12-13T08:34:43.141Z,7.05
2023-12-13T08:35:43.114Z,7.05
2023-12-13T08:36:43.077Z,7.05
2023-12-13T08:37:43.082Z,7.15
2023-12-13T08:38:43.058Z,7.21
2023-12-13T08:39:43.082Z,7.21
2023-12-13T08:40:43.072Z,7.23
2023-12-13T08:41:43.059Z,7.24
2023-12-13T08:42:45.689Z,7.30
2023-12-13T08:43:43.124Z,7.32
2023-12-13T08:44:42.995Z,7.34
2023-12-13T08:45:43.018Z,7.37
2023-12-13T08:46:42.997Z,7.39
2023-12-13T08:47:42.992Z,7.39
2023-12-13T08:48:43.043Z,7.42
2023-12-13T08:49:44.392Z,7.44
2023-12-13T08:50:42.964Z,7.48
2023-12-13T08:51:42.935Z,7.47
2023-12-13T08:52:42.954Z,7.48
2023-12-13T08:53:42.913Z,7.48
2023-12-13T08:54:42.889Z,7.48
2023-12-13T08:55:42.916Z,7.48
2023-12-13T08:56:42.877Z,7.48
2023-12-13T08:57:42.854Z,7.47
2023-12-13T08:58:42.880Z,7.47
2023-12-13T08:59:42.857Z,7.48
2023-12-13T09:00:42.873Z,7.50
2023-12-13T09:01:42.865Z,7.51
2023-12-13T09:02:42.806Z,7.54
2023-12-13T09:03:42.825Z,7.54
2023-12-13T09:04:42.801Z,7.57
2023-12-13T09:05:42.835Z,7.60
2023-12-13T09:06:42.750Z,7.60
2023-12-13T09:07:42.793Z,7.66
2023-12-13T09:08:42.749Z,7.60
2023-12-13T09:09:42.728Z,7.63
2023-12-13T09:10:42.776Z,7.63
2023-12-13T09:11:42.719Z,7.66
2023-12-13T09:12:42.721Z,7.66
2023-12-13T09:13:42.700Z,7.67
2023-12-13T09:14:42.686Z,7.69
2023-12-13T09:15:42.714Z,7.69
2023-12-13T09:16:42.649Z,7.69
2023-12-13T09:17:42.680Z,7.74
2023-12-13T09:18:42.657Z,7.74
2023-12-13T09:19:42.695Z,7.74
2023-12-13T09:20:42.632Z,7.77
2023-12-13T09:21:42.603Z,7.79
2023-12-13T09:22:42.618Z,7.79
2023-12-13T09:23:44.173Z,7.82
2023-12-13T09:24:42.564Z,7.84
2023-12-13T09:25:42.587Z,7.85
2023-12-13T09:26:42.574Z,7.86
2023-12-13T09:27:42.540Z,7.88
2023-12-13T09:28:42.558Z,7.89
2023-12-13T09:29:42.519Z,7.89
2023-12-13T09:30:42.529Z,7.89
2023-12-13T09:31:42.590Z,7.89
2023-12-13T09:32:44.459Z,7.89
2023-12-13T09:33:42.635Z,7.88
2023-12-13T09:34:42.499Z,7.86
2023-12-13T09:35:42.464Z,7.84
2023-12-13T09:36:42.464Z,7.84
2023-12-13T09:37:42.471Z,7.85
2023-12-13T09:38:42.401Z,7.82
2023-12-13T09:39:42.504Z,7.82
2023-12-13T09:40:42.438Z,7.82
2023-12-13T09:41:42.378Z,7.84
2023-12-13T09:42:42.362Z,7.85
2023-12-13T09:43:42.405Z,7.85
2023-12-13T09:44:42.364Z,7.79
2023-12-13T09:45:42.382Z,7.82
2023-12-13T09:46:42.359Z,7.82
2023-12-13T09:47:42.425Z,7.81
2023-12-13T09:48:42.320Z,7.81
2023-12-13T09:49:42.406Z,7.77
2023-12-13T09:50:42.421Z,7.81
2023-12-13T09:51:42.291Z,7.81
2023-12-13T09:52:42.291Z,7.81
2023-12-13T09:53:42.248Z,7.81
2023-12-13T09:54:42.262Z,7.79
2023-12-13T09:55:42.288Z,7.82
2023-12-13T09:56:42.225Z,7.88
2023-12-13T09:57:42.215Z,7.88
2023-12-13T09:58:42.233Z,7.91
2023-12-13T09:59:42.188Z,7.94
2023-12-13T10:00:42.210Z,7.95
2023-12-13T10:01:42.215Z,7.99
2023-12-13T10:02:42.226Z,7.99
2023-12-13T10:03:42.156Z,7.96
2023-12-13T10:04:42.202Z,8.00
2023-12-13T10:05:44.001Z,8.02
2023-12-13T10:06:42.125Z,8.02
2023-12-13T10:07:42.239Z,8.02
2023-12-13T10:08:42.089Z,8.04
2023-12-13T10:09:42.083Z,8.04
2023-12-13T10:10:42.090Z,8.03
2023-12-13T10:11:42.080Z,8.06
2023-12-13T10:12:42.394Z,8.04
2023-12-13T10:13:42.087Z,8.07
2023-12-13T10:14:42.044Z,8.06
2023-12-13T10:15:42.009Z,8.04
2023-12-13T10:16:42.153Z,8.06
2023-12-13T10:17:43.176Z,8.09
2023-12-13T10:18:42.301Z,8.13
2023-12-13T10:19:41.982Z,8.21
2023-12-13T10:20:41.975Z,8.22
2023-12-13T10:21:41.985Z,8.27
2023-12-13T10:22:41.968Z,8.29
2023-12-13T10:23:41.963Z,8.29
2023-12-13T10:24:41.913Z,8.36
2023-12-13T10:25:41.939Z,8.42
2023-12-13T10:26:41.916Z,8.50
2023-12-13T10:27:41.879Z,8.54
2023-12-13T10:28:41.897Z,8.58
2023-12-13T10:29:41.856Z,8.60
2023-12-13T10:30:41.871Z,8.63
2023-12-13T10:31:43.440Z,8.61
2023-12-13T10:32:41.836Z,8.60
2023-12-13T10:33:41.887Z,8.61
2023-12-13T10:34:41.832Z,8.61
2023-12-13T10:35:42.382Z,8.60
2023-12-13T10:36:41.796Z,8.57
2023-12-13T10:37:41.815Z,8.60
2023-12-13T10:38:41.765Z,8.60
2023-12-13T10:39:41.763Z,8.60
2023-12-13T10:40:41.774Z,8.60
2023-12-13T10:41:41.752Z,8.61
2023-12-13T10:42:41.723Z,8.60
2023-12-13T10:43:41.749Z,8.64
2023-12-13T10:44:41.702Z,8.63
2023-12-13T10:45:41.692Z,8.60
2023-12-13T10:46:41.762Z,8.61
2023-12-13T10:47:41.746Z,8.63
2023-12-13T10:48:41.759Z,8.64
2023-12-13T10:49:41.701Z,8.64
2023-12-13T10:50:41.641Z,8.65
2023-12-13T10:51:41.645Z,8.68
2023-12-13T10:52:41.640Z,8.73
2023-12-13T10:53:41.644Z,8.76
2023-12-13T10:54:41.606Z,8.94
2023-12-13T10:55:41.629Z,9.03
2023-12-13T10:56:42.526Z,9.03
2023-12-13T10:57:41.589Z,9.03
2023-12-13T10:58:41.596Z,9.01
2023-12-13T10:59:41.533Z,9.06
2023-12-13T11:00:41.553Z,9.16
2023-12-13T11:01:41.552Z,9.23
2023-12-13T11:02:41.512Z,9.17
2023-12-13T11:03:41.532Z,9.13
2023-12-13T11:04:41.505Z,9.15
2023-12-13T11:05:41.463Z,9.19
2023-12-13T11:06:41.532Z,9.23
2023-12-13T11:07:41.461Z,9.30
2023-12-13T11:08:41.445Z,9.32
2023-12-13T11:09:41.435Z,9.34
2023-12-13T11:10:41.449Z,9.32
2023-12-13T11:11:41.428Z,9.30
2023-12-13T11:12:41.393Z,9.30
2023-12-13T11:13:41.463Z,9.32
2023-12-13T11:14:41.422Z,9.34
2023-12-13T11:15:41.356Z,9.34
2023-12-13T11:16:41.422Z,9.32
2023-12-13T11:17:41.393Z,9.31
2023-12-13T11:18:41.356Z,9.31
2023-12-13T11:19:41.335Z,9.34
2023-12-13T11:20:41.312Z,9.38
2023-12-13T11:21:41.319Z,9.42
2023-12-13T11:22:41.411Z,9.42
2023-12-13T11:23:41.279Z,9.45
2023-12-13T11:24:41.298Z,9.48
2023-12-13T11:25:41.289Z,9.45
2023-12-13T11:26:41.243Z,9.44
2023-12-13T11:27:41.253Z,9.42
2023-12-13T11:28:41.288Z,9.41
2023-12-13T11:29:41.210Z,9.38
2023-12-13T11:30:41.228Z,9.34
2023-12-13T11:31:41.267Z,9.35
2023-12-13T11:32:41.331Z,9.34
2023-12-13T11:33:41.220Z,9.31
2023-12-13T11:34:41.215Z,9.30
2023-12-13T11:35:41.143Z,9.31
2023-12-13T11:36:41.133Z,9.31
2023-12-13T11:37:41.174Z,9.30
2023-12-13T11:38:41.113Z,9.27
2023-12-13T11:39:41.089Z,9.27
2023-12-13T11:40:41.155Z,9.27
2023-12-13T11:41:41.076Z,9.27
2023-12-13T11:42:41.132Z,9.26
2023-12-13T11:43:41.087Z,9.23
2023-12-13T11:44:41.133Z,9.22
2023-12-13T11:45:41.076Z,9.22
2023-12-13T11:46:41.064Z,9.20
2023-12-13T11:47:41.073Z,9.23
2023-12-13T11:48:41.062Z,9.22
2023-12-13T11:49:41.117Z,9.23
2023-12-13T11:50:40.980Z,9.20
2023-12-13T11:51:40.977Z,9.22
2023-12-13T11:52:41.047Z,9.20
2023-12-13T11:53:40.966Z,9.19
2023-12-13T11:54:41.253Z,9.19
2023-12-13T11:55:40.925Z,9.19
2023-12-13T11:56:40.946Z,9.20
2023-12-13T11:57:40.943Z,9.23
2023-12-13T11:58:40.957Z,9.20
2023-12-13T11:59:40.899Z,9.19
2023-12-13T12:00:40.896Z,9.19
2023-12-13T12:01:40.893Z,9.19
2023-12-13T12:02:40.937Z,9.19
2023-12-13T12:03:40.870Z,9.20
2023-12-13T12:04:40.954Z,9.19
2023-12-13T12:05:40.895Z,9.19
2023-12-13T12:06:42.419Z,9.20
2023-12-13T12:07:40.851Z,9.22
2023-12-13T12:08:40.800Z,9.22
2023-12-13T12:09:40.774Z,9.20
2023-12-13T12:10:40.872Z,9.22
2023-12-13T12:11:40.782Z,9.22
2023-12-13T12:12:40.789Z,9.24
2023-12-13T12:13:40.799Z,9.27
2023-12-13T12:14:40.729Z,9.27
2023-12-13T12:15:40.749Z,9.35
2023-12-13T12:16:40.764Z,9.41
2023-12-13T12:17:41.275Z,9.50
2023-12-13T12:18:40.765Z,9.62
2023-12-13T12:19:40.688Z,9.67
2023-12-13T12:20:40.675Z,9.77
2023-12-13T12:21:40.641Z,9.91
2023-12-13T12:22:40.679Z,10.09
2023-12-13T12:23:40.637Z,10.18
2023-12-13T12:24:40.617Z,10.16
2023-12-13T12:25:40.669Z,10.10
2023-12-13T12:26:40.602Z,10.01
2023-12-13T12:27:40.614Z,9.95
2023-12-13T12:28:40.595Z,9.95
2023-12-13T12:29:40.571Z,9.95
2023-12-13T12:30:40.601Z,10.02
2023-12-13T12:31:40.588Z,10.09
2023-12-13T12:32:40.608Z,10.11
2023-12-13T12:33:41.540Z,10.10
2023-12-13T12:34:40.597Z,9.96
2023-12-13T12:35:40.506Z,9.92
2023-12-13T12:36:40.493Z,9.91
2023-12-13T12:37:40.496Z,9.93
2023-12-13T12:38:40.506Z,9.91
2023-12-13T12:39:40.467Z,9.86
2023-12-13T12:40:40.477Z,9.83
2023-12-13T12:41:40.445Z,9.81
2023-12-13T12:42:40.421Z,9.77
2023-12-13T12:43:40.514Z,9.75
2023-12-13T12:44:40.423Z,9.74
2023-12-13T12:45:40.406Z,9.70
2023-12-13T12:46:40.416Z,9.68
2023-12-13T12:47:41.038Z,9.70
2023-12-13T12:48:40.441Z,9.67
2023-12-13T12:49:40.366Z,9.65
2023-12-13T12:50:40.344Z,9.67
2023-12-13T12:51:40.316Z,9.65
2023-12-13T12:52:40.401Z,9.65
2023-12-13T12:53:40.329Z,9.63
2023-12-13T12:54:40.297Z,9.63
2023-12-13T12:55:40.296Z,9.60
2023-12-13T12:56:40.262Z,9.56
2023-12-13T12:57:40.258Z,9.53
2023-12-13T12:58:40.387Z,9.50
2023-12-13T12:59:40.253Z,9.50
2023-12-13T13:00:40.274Z,9.52
2023-12-13T13:01:40.240Z,9.52
2023-12-13T13:02:40.224Z,9.53
2023-12-13T13:03:40.332Z,9.53
2023-12-13T13:04:40.250Z,9.52
2023-12-13T13:05:40.259Z,9.52
2023-12-13T13:06:40.165Z,9.52
2023-12-13T13:07:40.430Z,9.45
2023-12-13T13:08:40.167Z,9.42
2023-12-13T13:09:40.129Z,9.42
2023-12-13T13:10:40.235Z,9.44
2023-12-13T13:11:40.126Z,9.42
2023-12-13T13:12:40.095Z,9.40
2023-12-13T13:13:40.173Z,9.38
2023-12-13T13:14:40.102Z,9.40
2023-12-13T13:15:40.065Z,9.42
2023-12-13T13:16:40.098Z,9.41
2023-12-13T13:17:40.081Z,9.41
2023-12-13T13:18:40.107Z,9.42